Time;durP1;ratioP1;P1;durP2;ratioP2;P2;SDS_P1;SDS_P2;PMS_P1;PMS_P2;Temp;Humidity;BMP_temperature;BMP_pressure;BME280_temperature;BME280_humidity;BME280_pressure;Samples;Min_cycle;Max_cycle;Signal;HPM_P1;HPM_P2
2022/07/31 00:00:24;;;;;;;;;;;25.50;60.20;;;;;;5086777;27;84540;-43
2022/07/31 00:02:50;;;;;;;;;;;25.40;60.10;;;;;;5087727;27;82441;-44
2022/07/31 00:05:16;;;;;;;;;;;25.40;60.20;;;;;;5087063;27;82510;-44
2022/07/31 00:07:42;;;;;;;;;;;25.40;60.20;;;;;;5087354;27;82190;-46
2022/07/31 00:10:07;;;;;;;;;;;25.40;60.20;;;;;;5087214;27;82024;-46
2022/07/31 00:12:36;;;;;;;;;;;25.30;60.20;;;;;;5087505;27;82365;-45
2022/07/31 00:15:02;;;;;;;;;;;25.30;60.20;;;;;;5087554;27;82514;-45
2022/07/31 00:17:28;;;;;;;;;;;25.40;60.20;;;;;;5089555;27;81833;-44
2022/07/31 00:19:53;;;;;;;;;;;25.30;60.20;;;;;;5086726;27;83064;-44
2022/07/31 00:22:19;;;;;;;;;;;25.30;60.20;;;;;;5086572;27;83008;-47
2022/07/31 00:24:44;;;;;;;;;;;25.30;60.30;;;;;;5087016;27;82525;-47
2022/07/31 00:27:10;;;;;;;;;;;25.30;60.30;;;;;;5087080;27;83025;-48
2022/07/31 00:29:36;;;;;;;;;;;25.20;60.20;;;;;;5087195;27;82032;-43
2022/07/31 00:32:01;;;;;;;;;;;25.20;60.30;;;;;;5086970;27;82793;-46
2022/07/31 00:34:27;;;;;;;;;;;25.20;60.20;;;;;;5086293;27;83004;-45
2022/07/31 00:36:52;;;;;;;;;;;25.20;60.20;;;;;;5087031;27;82046;-47
2022/07/31 00:39:18;;;;;;;;;;;25.20;60.30;;;;;;5089972;27;82467;-47
2022/07/31 00:41:44;;;;;;;;;;;25.20;60.30;;;;;;5086782;27;82043;-46
2022/07/31 00:44:10;;;;;;;;;;;25.10;60.30;;;;;;5086924;27;81942;-44
2022/07/31 00:46:36;;;;;;;;;;;25.10;60.30;;;;;;5085932;27;83171;-45
2022/07/31 00:49:02;;;;;;;;;;;25.10;60.30;;;;;;5085660;27;82035;-44
2022/07/31 00:51:28;;;;;;;;;;;25.10;60.30;;;;;;5086920;27;82240;-44
2022/07/31 00:53:54;;;;;;;;;;;25.10;60.30;;;;;;5086622;27;82696;-44
2022/07/31 00:56:19;;;;;;;;;;;25.10;60.40;;;;;;5086739;27;82091;-47
2022/07/31 00:58:45;;;;;;;;;;;25.10;60.30;;;;;;5086658;27;82528;-44
2022/07/31 01:01:10;;;;;;;;;;;25.00;60.30;;;;;;5089084;27;84257;-45
2022/07/31 01:03:36;;;;;;;;;;;25.00;60.30;;;;;;5086850;27;83388;-45
2022/07/31 01:06:02;;;;;;;;;;;25.00;60.40;;;;;;5086476;27;83044;-46
2022/07/31 01:08:28;;;;;;;;;;;25.00;60.40;;;;;;5086130;27;82915;-44
2022/07/31 01:10:56;;;;;;;;;;;25.00;60.40;;;;;;5085854;27;82708;-48
2022/07/31 01:13:34;;;;;;;;;;;24.90;60.40;;;;;;5086246;27;83228;-45
2022/07/31 01:16:00;;;;;;;;;;;24.90;60.50;;;;;;5086293;27;82266;-45
2022/07/31 01:18:28;;;;;;;;;;;24.90;60.50;;;;;;5086215;27;83726;-46
2022/07/31 01:20:56;;;;;;;;;;;24.90;60.50;;;;;;5086029;27;82962;-45
2022/07/31 01:23:28;;;;;;;;;;;24.80;60.50;;;;;;5089019;27;81981;-43
2022/07/31 01:25:56;;;;;;;;;;;24.80;60.50;;;;;;5086204;27;83056;-46
2022/07/31 01:28:40;;;;;;;;;;;24.80;60.50;;;;;;5086735;27;81144;-45
2022/07/31 01:31:07;;;;;;;;;;;24.80;60.50;;;;;;5086205;27;82754;-45
2022/07/31 01:33:37;;;;;;;;;;;24.80;60.50;;;;;;5085791;27;84224;-46
2022/07/31 01:36:08;;;;;;;;;;;24.80;60.50;;;;;;5085276;27;82872;-46
2022/07/31 01:38:35;;;;;;;;;;;24.70;60.50;;;;;;5085946;27;84218;-43
2022/07/31 01:41:03;;;;;;;;;;;24.70;60.50;;;;;;5085465;27;84849;-44
2022/07/31 01:43:30;;;;;;;;;;;24.80;60.50;;;;;;5088415;27;82033;-44
2022/07/31 01:45:57;;;;;;;;;;;24.70;60.50;;;;;;5085800;27;84679;-43
2022/07/31 01:48:24;;;;;;;;;;;24.70;60.50;;;;;;5089202;27;81765;-43
2022/07/31 01:50:51;;;;;;;;;;;24.70;60.50;;;;;;5089116;27;83086;-45
2022/07/31 01:53:18;;;;;;;;;;;24.70;60.60;;;;;;5089654;27;84158;-44
2022/07/31 01:55:44;;;;;;;;;;;24.60;60.50;;;;;;5089300;27;82045;-46
2022/07/31 01:58:10;;;;;;;;;;;24.60;60.50;;;;;;5089112;27;83923;-46
2022/07/31 02:00:36;;;;;;;;;;;24.60;60.60;;;;;;5088361;27;85336;-45
2022/07/31 02:03:03;;;;;;;;;;;24.60;60.60;;;;;;5088947;27;81930;-46
2022/07/31 02:05:29;;;;;;;;;;;24.60;60.60;;;;;;5091719;27;83987;-45
2022/07/31 02:07:55;;;;;;;;;;;24.60;60.60;;;;;;5089180;27;81982;-46
2022/07/31 02:10:20;;;;;;;;;;;24.50;60.60;;;;;;5089031;27;83975;-44
2022/07/31 02:12:46;;;;;;;;;;;24.50;60.70;;;;;;5088947;27;83276;-45
2022/07/31 02:15:13;;;;;;;;;;;24.50;60.60;;;;;;5089296;27;82041;-43
2022/07/31 02:17:40;;;;;;;;;;;24.50;60.60;;;;;;5089677;27;82677;-43
2022/07/31 02:20:08;;;;;;;;;;;24.50;60.70;;;;;;5088879;27;83025;-45
2022/07/31 02:22:34;;;;;;;;;;;24.50;60.70;;;;;;5088691;27;81997;-43
2022/07/31 02:25:00;;;;;;;;;;;24.50;60.80;;;;;;5088372;27;82847;-46
2022/07/31 02:27:26;;;;;;;;;;;24.40;60.70;;;;;;5091661;27;82849;-45
2022/07/31 02:29:52;;;;;;;;;;;24.40;60.70;;;;;;5088853;27;82591;-45
2022/07/31 02:32:18;;;;;;;;;;;24.40;60.70;;;;;;5088637;27;83335;-45
2022/07/31 02:34:44;;;;;;;;;;;24.40;60.70;;;;;;5089088;27;81994;-45
2022/07/31 02:37:10;;;;;;;;;;;24.30;60.70;;;;;;5089044;27;82520;-43
2022/07/31 02:39:37;;;;;;;;;;;24.30;60.80;;;;;;5088556;27;83169;-45
2022/07/31 02:42:02;;;;;;;;;;;24.30;60.70;;;;;;5088952;27;81173;-45
2022/07/31 02:44:30;;;;;;;;;;;24.30;60.80;;;;;;5088443;27;82220;-43
2022/07/31 02:46:56;;;;;;;;;;;24.30;60.80;;;;;;5088076;27;83849;-44
2022/07/31 02:49:22;;;;;;;;;;;24.30;60.70;;;;;;5089916;27;82989;-44
2022/07/31 02:51:48;;;;;;;;;;;24.20;60.80;;;;;;5088359;27;83163;-45
2022/07/31 02:54:13;;;;;;;;;;;24.20;60.70;;;;;;5088629;27;82164;-44
2022/07/31 02:56:40;;;;;;;;;;;24.20;60.80;;;;;;5088456;27;82613;-44
2022/07/31 02:59:05;;;;;;;;;;;24.20;60.80;;;;;;5087953;27;84386;-43
2022/07/31 03:01:35;;;;;;;;;;;24.20;60.80;;;;;;5088132;27;82089;-46
2022/07/31 03:04:00;;;;;;;;;;;24.20;60.80;;;;;;5088245;27;84258;-44
2022/07/31 03:06:26;;;;;;;;;;;24.20;60.80;;;;;;5088595;27;82557;-43
2022/07/31 03:08:52;;;;;;;;;;;24.10;60.90;;;;;;5088272;27;82199;-44
2022/07/31 03:11:17;;;;;;;;;;;24.10;60.80;;;;;;5090770;27;82445;-45
2022/07/31 03:13:44;;;;;;;;;;;24.10;60.80;;;;;;5087794;27;82985;-46
2022/07/31 03:16:13;;;;;;;;;;;24.10;60.80;;;;;;5088298;27;83762;-43
2022/07/31 03:18:39;;;;;;;;;;;24.10;60.70;;;;;;5087782;27;83025;-44
2022/07/31 03:21:04;;;;;;;;;;;24.10;60.70;;;;;;5088233;27;82020;-45
2022/07/31 03:23:35;;;;;;;;;;;24.00;60.70;;;;;;5088302;27;82617;-45
2022/07/31 03:26:01;;;;;;;;;;;24.00;60.70;;;;;;5087657;27;84005;-44
2022/07/31 03:28:27;;;;;;;;;;;24.00;60.70;;;;;;5088062;27;82113;-45
2022/07/31 03:30:52;;;;;;;;;;;24.00;60.80;;;;;;5091165;27;82599;-46
2022/07/31 03:33:18;;;;;;;;;;;24.00;60.80;;;;;;5087936;27;81734;-45
2022/07/31 03:35:43;;;;;;;;;;;24.00;61.40;;;;;;5088219;27;82852;-44
2022/07/31 03:38:09;;;;;;;;;;;23.90;60.80;;;;;;5087109;27;83980;-44
2022/07/31 03:40:34;;;;;;;;;;;23.90;60.80;;;;;;5087308;27;81850;-44
2022/07/31 03:43:01;;;;;;;;;;;23.90;60.80;;;;;;5087779;27;82312;-44
2022/07/31 03:45:26;;;;;;;;;;;23.90;60.80;;;;;;5087322;27;84332;-43
2022/07/31 03:47:53;;;;;;;;;;;23.90;60.80;;;;;;5087704;27;81993;-45
2022/07/31 03:50:18;;;;;;;;;;;23.90;60.90;;;;;;5087465;27;82233;-45
2022/07/31 03:52:45;;;;;;;;;;;23.90;60.90;;;;;;5090243;27;82960;-45
2022/07/31 03:55:11;;;;;;;;;;;23.90;60.90;;;;;;5087911;27;82493;-43
2022/07/31 03:57:36;;;;;;;;;;;23.80;60.80;;;;;;5087418;27;82875;-43
2022/07/31 04:00:03;;;;;;;;;;;23.90;60.90;;;;;;5087231;27;81920;-43
2022/07/31 04:02:29;;;;;;;;;;;23.80;60.90;;;;;;5086781;27;82869;-45
2022/07/31 04:04:56;;;;;;;;;;;23.80;60.90;;;;;;5087351;27;82947;-45
2022/07/31 04:07:22;;;;;;;;;;;23.80;60.90;;;;;;5087312;27;82002;-44
2022/07/31 04:09:47;;;;;;;;;;;23.70;61.00;;;;;;5086670;27;81897;-43
2022/07/31 04:12:13;;;;;;;;;;;23.70;60.90;;;;;;5086818;27;83451;-43
2022/07/31 04:14:38;;;;;;;;;;;23.70;60.90;;;;;;5089945;27;82069;-45
2022/07/31 04:17:04;;;;;;;;;;;23.70;60.90;;;;;;5087108;27;83010;-43
2022/07/31 04:19:29;;;;;;;;;;;23.70;60.90;;;;;;5087711;27;81425;-45
2022/07/31 04:21:56;;;;;;;;;;;23.70;60.90;;;;;;5087069;27;81951;-47
2022/07/31 04:24:22;;;;;;;;;;;23.70;60.90;;;;;;5086123;27;83928;-43
2022/07/31 04:26:48;;;;;;;;;;;23.70;61.00;;;;;;5086314;27;82989;-43
2022/07/31 04:29:13;;;;;;;;;;;23.60;61.00;;;;;;5086818;27;82700;-45
2022/07/31 04:31:39;;;;;;;;;;;23.60;61.00;;;;;;5086783;27;82949;-45
2022/07/31 04:34:04;;;;;;;;;;;23.60;61.00;;;;;;5086987;27;81902;-44
2022/07/31 04:36:30;;;;;;;;;;;23.60;61.00;;;;;;5089523;27;82441;-45
2022/07/31 04:38:55;;;;;;;;;;;23.60;61.00;;;;;;5086682;27;82348;-46
2022/07/31 04:41:21;;;;;;;;;;;23.60;61.10;;;;;;5086734;27;82809;-45
2022/07/31 04:43:47;;;;;;;;;;;23.60;61.10;;;;;;5086871;27;83997;-43
2022/07/31 04:46:12;;;;;;;;;;;23.60;61.20;;;;;;5086862;27;81864;-45
2022/07/31 04:48:38;;;;;;;;;;;23.60;61.20;;;;;;5086590;27;82444;-46
2022/07/31 04:51:03;;;;;;;;;;;23.50;61.20;;;;;;5085426;27;84855;-43
2022/07/31 04:53:29;;;;;;;;;;;23.50;61.20;;;;;;5086070;27;82065;-43
2022/07/31 04:58:38;;;;;;;;;;;23.50;61.30;;;;;;5089553;27;82180;-44
2022/07/31 05:01:04;;;;;;;;;;;23.50;61.30;;;;;;5086527;27;83913;-43
2022/07/31 05:03:29;;;;;;;;;;;23.50;61.30;;;;;;5086514;27;83084;-45
2022/07/31 05:05:55;;;;;;;;;;;23.50;61.40;;;;;;5086323;27;82074;-44
2022/07/31 05:08:20;;;;;;;;;;;23.50;61.40;;;;;;5086861;27;82600;-45
2022/07/31 05:11:47;;;;;;;;;;;23.50;61.50;;;;;;5086293;27;82040;-46
2022/07/31 05:13:41;;;;;;;;;;;23.40;61.50;;;;;;5080450;27;82038;-42
2022/07/31 05:16:09;;;;;;;;;;;23.40;61.40;;;;;;5085990;27;82908;-46
2022/07/31 05:18:35;;;;;;;;;;;23.40;61.60;;;;;;5086050;27;82910;-43
2022/07/31 05:21:00;;;;;;;;;;;23.40;61.60;;;;;;5089089;27;82095;-46
2022/07/31 05:23:26;;;;;;;;;;;23.40;61.60;;;;;;5089637;27;83087;-43
2022/07/31 05:25:51;;;;;;;;;;;23.30;62.20;;;;;;5090034;27;82183;-43
2022/07/31 05:28:17;;;;;;;;;;;23.30;61.50;;;;;;5089837;27;82635;-43
2022/07/31 05:30:42;;;;;;;;;;;23.30;61.70;;;;;;5089599;27;82833;-44
2022/07/31 05:33:08;;;;;;;;;;;23.30;62.30;;;;;;5090251;27;81175;-43
2022/07/31 05:35:33;;;;;;;;;;;23.30;61.70;;;;;;5089557;27;82050;-45
2022/07/31 05:37:59;;;;;;;;;;;23.30;61.60;;;;;;5089583;27;82937;-42
2022/07/31 05:40:24;;;;;;;;;;;23.30;61.80;;;;;;5091909;27;82938;-46
2022/07/31 05:42:50;;;;;;;;;;;23.30;61.80;;;;;;5089501;27;82679;-44
2022/07/31 05:45:15;;;;;;;;;;;23.30;61.80;;;;;;5089694;27;81922;-43
2022/07/31 05:47:41;;;;;;;;;;;23.30;61.80;;;;;;5088120;27;85509;-42
2022/07/31 05:50:07;;;;;;;;;;;23.30;61.90;;;;;;5088610;27;83105;-45
2022/07/31 05:52:32;;;;;;;;;;;23.30;62.00;;;;;;5089263;27;82102;-44
2022/07/31 05:54:58;;;;;;;;;;;23.30;62.00;;;;;;5089310;27;82851;-43
2022/07/31 05:57:23;;;;;;;;;;;23.30;62.00;;;;;;5090006;27;82355;-44
2022/07/31 05:59:49;;;;;;;;;;;23.30;61.90;;;;;;5089172;27;82137;-44
2022/07/31 06:02:14;;;;;;;;;;;23.30;61.80;;;;;;5092058;27;82410;-43
2022/07/31 06:04:40;;;;;;;;;;;23.30;61.80;;;;;;5088527;27;83051;-44
2022/07/31 06:07:05;;;;;;;;;;;23.20;61.90;;;;;;5089331;27;83352;-46
2022/07/31 06:09:31;;;;;;;;;;;23.20;61.90;;;;;;5089257;27;82868;-43
2022/07/31 06:11:56;;;;;;;;;;;23.20;62.10;;;;;;5089339;27;81922;-45
2022/07/31 06:14:22;;;;;;;;;;;23.20;62.00;;;;;;5089163;27;82954;-44
2022/07/31 06:16:49;;;;;;;;;;;23.20;62.10;;;;;;5089045;27;83134;-43
2022/07/31 06:19:14;;;;;;;;;;;23.20;62.20;;;;;;5088842;27;82057;-45
2022/07/31 06:21:40;;;;;;;;;;;23.20;62.20;;;;;;5089326;27;82360;-44
2022/07/31 06:24:05;;;;;;;;;;;23.20;62.20;;;;;;5091398;27;83755;-46
2022/07/31 06:26:31;;;;;;;;;;;23.10;62.20;;;;;;5089036;27;82701;-43
2022/07/31 06:28:56;;;;;;;;;;;23.10;62.20;;;;;;5088185;27;84060;-44
2022/07/31 06:31:22;;;;;;;;;;;23.10;62.10;;;;;;5087265;27;81985;-44
2022/07/31 06:33:48;;;;;;;;;;;23.10;62.30;;;;;;5088272;27;82378;-45
2022/07/31 06:36:14;;;;;;;;;;;23.10;62.30;;;;;;5088328;27;83112;-45
2022/07/31 06:38:39;;;;;;;;;;;23.10;62.30;;;;;;5088810;27;81956;-45
2022/07/31 06:41:05;;;;;;;;;;;23.10;62.20;;;;;;5088431;27;82395;-45
2022/07/31 06:43:30;;;;;;;;;;;23.10;62.30;;;;;;5088847;27;82279;-43
2022/07/31 06:45:56;;;;;;;;;;;23.10;62.30;;;;;;5091976;27;81312;-44
2022/07/31 06:48:21;;;;;;;;;;;23.10;62.50;;;;;;5088325;27;82953;-46
2022/07/31 06:50:47;;;;;;;;;;;23.10;62.40;;;;;;5088104;27;82292;-44
2022/07/31 06:53:12;;;;;;;;;;;23.10;62.40;;;;;;5087723;27;83782;-43
2022/07/31 06:55:38;;;;;;;;;;;23.00;62.40;;;;;;5086867;27;86388;-45
2022/07/31 06:58:03;;;;;;;;;;;23.00;62.50;;;;;;5088480;27;82034;-44
2022/07/31 07:00:29;;;;;;;;;;;23.00;62.50;;;;;;5088509;27;81974;-44
2022/07/31 07:02:54;;;;;;;;;;;23.00;62.40;;;;;;5087945;27;84365;-43
2022/07/31 07:05:20;;;;;;;;;;;23.00;62.40;;;;;;5088199;27;81737;-45
2022/07/31 07:07:46;;;;;;;;;;;23.00;62.40;;;;;;5090865;27;82368;-47
2022/07/31 07:10:12;;;;;;;;;;;23.00;62.40;;;;;;5088944;27;81230;-45
2022/07/31 07:12:37;;;;;;;;;;;23.00;62.60;;;;;;5088436;27;81910;-48
2022/07/31 07:15:03;;;;;;;;;;;23.00;62.60;;;;;;5088150;27;82180;-46
2022/07/31 07:17:29;;;;;;;;;;;23.00;62.70;;;;;;5087367;27;82985;-46
2022/07/31 07:19:55;;;;;;;;;;;23.00;62.70;;;;;;5087856;27;83519;-46
2022/07/31 07:22:20;;;;;;;;;;;23.00;62.70;;;;;;5088061;27;82931;-46
2022/07/31 07:24:46;;;;;;;;;;;23.00;62.70;;;;;;5087567;27;82037;-47
2022/07/31 07:27:11;;;;;;;;;;;23.00;62.70;;;;;;5088102;27;82299;-45
2022/07/31 07:29:37;;;;;;;;;;;23.00;62.70;;;;;;5090528;27;84391;-44
2022/07/31 07:32:02;;;;;;;;;;;23.00;62.70;;;;;;5087997;27;82437;-45
2022/07/31 07:34:28;;;;;;;;;;;23.00;62.60;;;;;;5088064;27;82685;-47
2022/07/31 07:36:54;;;;;;;;;;;23.00;62.70;;;;;;5087742;27;82938;-45
2022/07/31 07:39:19;;;;;;;;;;;23.00;62.80;;;;;;5087906;27;82536;-44
2022/07/31 07:41:45;;;;;;;;;;;22.90;62.90;;;;;;5086735;27;84144;-46
2022/07/31 07:44:10;;;;;;;;;;;22.90;62.80;;;;;;5086779;27;82058;-44
2022/07/31 07:46:36;;;;;;;;;;;22.90;62.80;;;;;;5087925;27;81982;-44
2022/07/31 07:49:02;;;;;;;;;;;22.90;62.80;;;;;;5089768;27;82958;-46
2022/07/31 07:51:28;;;;;;;;;;;22.90;63.00;;;;;;5087364;27;84120;-46
2022/07/31 07:53:53;;;;;;;;;;;22.90;63.10;;;;;;5087502;27;82319;-45
2022/07/31 07:56:19;;;;;;;;;;;22.90;63.00;;;;;;5087533;27;82091;-46
2022/07/31 07:58:45;;;;;;;;;;;22.90;63.20;;;;;;5088047;27;82725;-45
2022/07/31 08:01:10;;;;;;;;;;;22.90;62.90;;;;;;5086848;27;83578;-45
2022/07/31 08:03:36;;;;;;;;;;;22.90;63.00;;;;;;5087432;27;82461;-45
2022/07/31 08:06:01;;;;;;;;;;;22.80;63.20;;;;;;5086943;27;83142;-46
2022/07/31 08:08:27;;;;;;;;;;;22.80;63.10;;;;;;5086954;27;84297;-46
2022/07/31 08:10:53;;;;;;;;;;;22.80;63.20;;;;;;5090172;27;81963;-45
2022/07/31 08:13:18;;;;;;;;;;;22.80;63.10;;;;;;5086836;27;84621;-46
2022/07/31 08:15:44;;;;;;;;;;;22.80;63.20;;;;;;5087471;27;81991;-44
2022/07/31 08:18:09;;;;;;;;;;;22.90;63.20;;;;;;5087117;27;82464;-44
2022/07/31 08:20:36;;;;;;;;;;;22.80;63.20;;;;;;5087010;27;82965;-46
2022/07/31 08:23:01;;;;;;;;;;;22.80;63.20;;;;;;5087776;27;81121;-47
2022/07/31 08:25:27;;;;;;;;;;;22.80;63.20;;;;;;5087264;27;82075;-44
2022/07/31 08:27:52;;;;;;;;;;;22.80;63.30;;;;;;5086720;27;83811;-46
2022/07/31 08:30:18;;;;;;;;;;;22.80;63.20;;;;;;5086504;27;83120;-44
2022/07/31 08:32:44;;;;;;;;;;;22.80;63.30;;;;;;5089475;27;84103;-45
2022/07/31 08:35:09;;;;;;;;;;;22.80;64.00;;;;;;5087111;27;82070;-45
2022/07/31 08:37:35;;;;;;;;;;;22.80;63.40;;;;;;5086755;27;83280;-44
2022/07/31 08:40:00;;;;;;;;;;;22.80;63.50;;;;;;5086672;27;82872;-44
2022/07/31 08:42:26;;;;;;;;;;;22.80;63.50;;;;;;5086809;27;82117;-46
2022/07/31 08:44:51;;;;;;;;;;;22.80;63.70;;;;;;5086649;27;83295;-44
2022/07/31 08:47:18;;;;;;;;;;;22.80;63.60;;;;;;5087333;27;81086;-45
2022/07/31 08:49:45;;;;;;;;;;;22.80;63.50;;;;;;5086348;27;82339;-43
2022/07/31 08:52:15;;;;;;;;;;;22.80;63.40;;;;;;5086867;27;82064;-46
2022/07/31 08:54:41;;;;;;;;;;;22.80;63.70;;;;;;5088363;27;83872;-44
2022/07/31 08:57:07;;;;;;;;;;;22.80;63.60;;;;;;5089939;27;83385;-44
2022/07/31 08:59:32;;;;;;;;;;;22.80;63.80;;;;;;5090208;27;82138;-44
2022/07/31 09:01:58;;;;;;;;;;;22.80;63.60;;;;;;5090021;27;82167;-44
2022/07/31 09:04:24;;;;;;;;;;;22.70;63.50;;;;;;5090132;27;82419;-44
2022/07/31 09:06:50;;;;;;;;;;;22.80;63.50;;;;;;5089929;27;83207;-46
2022/07/31 09:09:16;;;;;;;;;;;22.80;63.60;;;;;;5090027;27;82069;-44
2022/07/31 09:11:46;;;;;;;;;;;22.80;63.60;;;;;;5090372;27;83849;-46
2022/07/31 09:14:12;;;;;;;;;;;22.70;63.80;;;;;;5089728;27;82980;-46
2022/07/31 09:16:49;;;;;;;;;;;22.70;63.70;;;;;;5092506;27;82010;-44
2022/07/31 09:19:14;;;;;;;;;;;22.70;63.50;;;;;;5088885;27;84402;-46
2022/07/31 09:21:43;;;;;;;;;;;22.70;63.80;;;;;;5089649;27;82084;-45
2022/07/31 09:24:10;;;;;;;;;;;22.80;63.90;;;;;;5089687;27;84711;-49
2022/07/31 09:26:36;;;;;;;;;;;22.80;63.70;;;;;;5089343;27;83041;-46
2022/07/31 09:29:07;;;;;;;;;;;22.80;63.70;;;;;;5089678;27;81953;-44
2022/07/31 09:31:35;;;;;;;;;;;22.70;63.60;;;;;;5088239;27;85241;-46
2022/07/31 09:34:01;;;;;;;;;;;22.70;63.60;;;;;;5089648;27;82639;-47
2022/07/31 09:36:27;;;;;;;;;;;22.80;63.60;;;;;;5089816;27;80960;-49
2022/07/31 09:38:52;;;;;;;;;;;22.70;63.60;;;;;;5092023;27;81824;-45
2022/07/31 09:41:19;;;;;;;;;;;22.80;63.60;;;;;;5089333;27;82074;-45
2022/07/31 09:44:02;;;;;;;;;;;22.70;63.70;;;;;;5088750;27;82971;-46
2022/07/31 09:46:47;;;;;;;;;;;22.80;64.30;;;;;;5089107;27;82198;-44
2022/07/31 09:49:13;;;;;;;;;;;22.80;63.40;;;;;;5088435;27;81860;-44
2022/07/31 09:51:42;;;;;;;;;;;22.80;63.50;;;;;;5089474;27;82448;-43
2022/07/31 09:54:18;;;;;;;;;;;22.80;63.70;;;;;;5088889;27;83092;-44
2022/07/31 09:56:45;;;;;;;;;;;22.80;63.60;;;;;;5088921;27;82123;-44
2022/07/31 09:59:11;;;;;;;;;;;22.80;63.60;;;;;;5091666;27;82428;-45
2022/07/31 10:01:36;;;;;;;;;;;22.80;63.60;;;;;;5089303;27;81298;-46
2022/07/31 10:04:04;;;;;;;;;;;22.80;63.60;;;;;;5087536;27;82626;-46
2022/07/31 10:06:30;;;;;;;;;;;22.80;63.60;;;;;;5088670;27;84409;-46
2022/07/31 10:08:57;;;;;;;;;;;22.80;63.50;;;;;;5087681;27;82901;-44
2022/07/31 10:11:23;;;;;;;;;;;22.80;63.40;;;;;;5088756;27;83179;-46
2022/07/31 10:13:53;;;;;;;;;;;22.80;63.40;;;;;;5088790;27;82956;-45
2022/07/31 10:16:21;;;;;;;;;;;22.80;63.60;;;;;;5088768;27;82033;-51
2022/07/31 10:18:48;;;;;;;;;;;22.80;63.40;;;;;;5088926;27;84353;-49
2022/07/31 10:21:15;;;;;;;;;;;22.80;63.40;;;;;;5091775;27;83052;-46
2022/07/31 10:23:42;;;;;;;;;;;22.90;63.50;;;;;;5088710;27;83968;-47
2022/07/31 10:26:08;;;;;;;;;;;22.90;63.50;;;;;;5088753;27;82083;-44
2022/07/31 10:28:37;;;;;;;;;;;22.80;63.40;;;;;;5088672;27;81956;-46
2022/07/31 10:31:03;;;;;;;;;;;22.80;63.60;;;;;;5088413;27;84098;-45
2022/07/31 10:33:29;;;;;;;;;;;22.80;63.60;;;;;;5087615;27;85593;-45
2022/07/31 10:36:05;;;;;;;;;;;22.80;63.60;;;;;;5088693;27;82085;-46
2022/07/31 10:38:53;;;;;;;;;;;22.90;63.40;;;;;;5088415;27;82840;-45
2022/07/31 10:41:30;;;;;;;;;;;22.90;63.60;;;;;;5088082;27;83022;-45
2022/07/31 10:43:59;;;;;;;;;;;22.90;63.60;;;;;;5090921;27;82346;-44
2022/07/31 10:46:26;;;;;;;;;;;22.90;63.60;;;;;;5088013;27;84491;-44
2022/07/31 10:48:52;;;;;;;;;;;22.90;63.70;;;;;;5087919;27;82090;-46
2022/07/31 10:51:17;;;;;;;;;;;22.90;63.60;;;;;;5088631;27;84044;-45
2022/07/31 10:54:04;;;;;;;;;;;22.90;63.60;;;;;;5088132;27;83030;-44
2022/07/31 10:56:43;;;;;;;;;;;22.90;63.30;;;;;;5088218;27;81911;-45
2022/07/31 10:59:08;;;;;;;;;;;22.90;63.40;;;;;;5087697;27;82884;-45
2022/07/31 11:01:44;;;;;;;;;;;22.90;63.20;;;;;;5087762;27;82975;-45
2022/07/31 11:04:09;;;;;;;;;;;22.90;63.30;;;;;;5088205;27;81934;-47
2022/07/31 11:06:42;;;;;;;;;;;22.90;63.30;;;;;;5090898;27;81834;-46
2022/07/31 11:09:07;;;;;;;;;;;22.90;63.50;;;;;;5087811;27;81970;-47
2022/07/31 11:11:34;;;;;;;;;;;22.90;63.30;;;;;;5087919;27;84394;-46
2022/07/31 11:14:00;;;;;;;;;;;22.90;63.60;;;;;;5087374;27;83419;-45
2022/07/31 11:16:26;;;;;;;;;;;22.90;63.00;;;;;;5088587;27;81676;-43
2022/07/31 11:18:55;;;;;;;;;;;22.90;63.40;;;;;;5086910;27;83081;-46
2022/07/31 11:21:28;;;;;;;;;;;23.00;63.30;;;;;;5087367;27;82186;-45
2022/07/31 11:23:54;;;;;;;;;;;22.90;63.20;;;;;;5087112;27;83051;-45
2022/07/31 11:26:19;;;;;;;;;;;22.90;63.00;;;;;;5087603;27;83439;-44
2022/07/31 11:28:45;;;;;;;;;;;22.90;63.10;;;;;;5090112;27;83700;-43
2022/07/31 11:31:10;;;;;;;;;;;22.90;63.00;;;;;;5087778;27;82457;-46
2022/07/31 11:33:39;;;;;;;;;;;22.90;63.10;;;;;;5087648;27;83062;-44
2022/07/31 11:36:15;;;;;;;;;;;23.00;63.20;;;;;;5087317;27;82069;-47
2022/07/31 11:38:42;;;;;;;;;;;22.90;63.10;;;;;;5086129;27;84448;-44
2022/07/31 11:41:07;;;;;;;;;;;23.00;63.00;;;;;;5087690;27;82206;-49
2022/07/31 11:43:33;;;;;;;;;;;22.90;63.00;;;;;;5087164;27;82081;-44
2022/07/31 11:45:59;;;;;;;;;;;23.00;63.00;;;;;;5087264;27;83999;-45
2022/07/31 11:48:25;;;;;;;;;;;23.00;63.10;;;;;;5086613;27;84132;-46
2022/07/31 11:50:51;;;;;;;;;;;23.00;62.90;;;;;;5089885;27;81950;-44
2022/07/31 11:53:17;;;;;;;;;;;22.90;62.90;;;;;;5087265;27;83219;-45
2022/07/31 11:55:50;;;;;;;;;;;22.90;63.00;;;;;;5087484;27;81989;-46
2022/07/31 11:58:16;;;;;;;;;;;22.90;63.10;;;;;;5085794;27;84002;-44
2022/07/31 12:00:46;;;;;;;;;;;22.90;63.00;;;;;;5086857;27;84619;-46
2022/07/31 12:03:11;;;;;;;;;;;22.90;62.80;;;;;;5087484;27;81930;-46
2022/07/31 12:05:44;;;;;;;;;;;23.00;62.90;;;;;;5087681;27;82504;-46
2022/07/31 12:08:10;;;;;;;;;;;23.00;63.10;;;;;;5086712;27;84072;-46
2022/07/31 12:10:35;;;;;;;;;;;22.90;62.80;;;;;;5089741;27;81923;-44
2022/07/31 12:13:01;;;;;;;;;;;23.00;62.90;;;;;;5086556;27;83921;-46
2022/07/31 12:15:26;;;;;;;;;;;23.00;62.90;;;;;;5087325;27;82171;-45
2022/07/31 12:17:59;;;;;;;;;;;22.90;62.90;;;;;;5087064;27;82442;-44
2022/07/31 12:20:24;;;;;;;;;;;22.90;62.90;;;;;;5086753;27;83200;-45
2022/07/31 12:22:56;;;;;;;;;;;22.90;62.80;;;;;;5086935;27;81950;-44
2022/07/31 12:25:21;;;;;;;;;;;23.00;63.00;;;;;;5086772;27;82422;-43
2022/07/31 12:27:51;;;;;;;;;;;23.00;63.00;;;;;;5087122;27;82509;-44
2022/07/31 12:30:17;;;;;;;;;;;23.00;62.80;;;;;;5085241;27;81445;-44
2022/07/31 12:32:43;;;;;;;;;;;23.00;62.90;;;;;;5089773;27;81936;-44
2022/07/31 12:35:08;;;;;;;;;;;23.00;62.90;;;;;;5086498;27;82053;-44
2022/07/31 12:37:44;;;;;;;;;;;23.00;62.90;;;;;;5086147;27;83013;-44
2022/07/31 12:40:20;;;;;;;;;;;23.00;62.90;;;;;;5086148;27;83578;-45
2022/07/31 12:42:45;;;;;;;;;;;23.00;63.10;;;;;;5086487;27;81879;-46
2022/07/31 12:45:11;;;;;;;;;;;23.00;63.00;;;;;;5086665;27;82413;-46
2022/07/31 12:47:36;;;;;;;;;;;23.00;63.00;;;;;;5086499;27;82971;-46
2022/07/31 12:50:02;;;;;;;;;;;23.00;62.90;;;;;;5086174;27;82158;-45
2022/07/31 12:52:30;;;;;;;;;;;23.00;62.90;;;;;;5086264;27;81967;-47
2022/07/31 12:54:56;;;;;;;;;;;23.00;62.80;;;;;;5089449;27;83544;-44
2022/07/31 12:57:22;;;;;;;;;;;23.10;63.10;;;;;;5086492;27;82182;-45
2022/07/31 12:59:47;;;;;;;;;;;23.00;62.90;;;;;;5086187;27;84457;-45
2022/07/31 13:02:13;;;;;;;;;;;23.10;63.10;;;;;;5085418;27;83008;-45
2022/07/31 13:04:38;;;;;;;;;;;23.10;63.10;;;;;;5086245;27;83411;-44
2022/07/31 13:07:04;;;;;;;;;;;23.10;63.00;;;;;;5085889;27;83231;-45
2022/07/31 13:09:30;;;;;;;;;;;23.10;63.00;;;;;;5086522;27;82908;-46
2022/07/31 13:11:55;;;;;;;;;;;23.10;62.80;;;;;;5086318;27;82255;-44
2022/07/31 13:14:24;;;;;;;;;;;23.10;63.00;;;;;;5086141;27;82920;-46
2022/07/31 13:16:51;;;;;;;;;;;23.10;62.90;;;;;;5088987;27;81965;-43
2022/07/31 13:19:17;;;;;;;;;;;23.10;62.80;;;;;;5086592;27;81680;-44
2022/07/31 13:21:43;;;;;;;;;;;23.10;63.10;;;;;;5085788;27;82352;-45
2022/07/31 13:24:09;;;;;;;;;;;23.20;62.90;;;;;;5086204;27;82331;-44
2022/07/31 13:26:35;;;;;;;;;;;23.10;63.00;;;;;;5085323;27;83981;-44
2022/07/31 13:29:01;;;;;;;;;;;23.20;63.00;;;;;;5086157;27;81929;-44
2022/07/31 13:31:26;;;;;;;;;;;23.20;63.10;;;;;;5085918;27;82469;-45
2022/07/31 13:33:52;;;;;;;;;;;23.20;63.20;;;;;;5085798;27;85050;-44
2022/07/31 13:36:17;;;;;;;;;;;23.10;63.30;;;;;;5085715;27;82035;-43
2022/07/31 13:38:43;;;;;;;;;;;23.20;63.10;;;;;;5088534;27;82001;-45
2022/07/31 13:41:23;;;;;;;;;;;23.20;63.00;;;;;;5085739;27;82119;-44
2022/07/31 13:43:48;;;;;;;;;;;23.20;63.20;;;;;;5088762;27;83970;-47
2022/07/31 13:46:14;;;;;;;;;;;23.20;63.10;;;;;;5089211;27;83051;-44
2022/07/31 13:48:39;;;;;;;;;;;23.20;63.10;;;;;;5089250;27;82221;-44
2022/07/31 13:51:05;;;;;;;;;;;23.20;63.10;;;;;;5088598;27;82581;-45
2022/07/31 13:53:31;;;;;;;;;;;23.10;63.00;;;;;;5089205;27;82035;-45
2022/07/31 13:55:57;;;;;;;;;;;23.20;63.00;;;;;;5089125;27;82142;-44
2022/07/31 13:58:25;;;;;;;;;;;23.20;63.00;;;;;;5092177;27;82697;-45
2022/07/31 14:00:51;;;;;;;;;;;23.20;63.00;;;;;;5087479;27;82211;-45
2022/07/31 14:03:17;;;;;;;;;;;23.30;63.30;;;;;;5089075;27;81907;-45
2022/07/31 14:05:42;;;;;;;;;;;23.30;63.10;;;;;;5088755;27;82906;-44
2022/07/31 14:08:08;;;;;;;;;;;23.30;63.00;;;;;;5089581;27;81412;-46
2022/07/31 14:10:33;;;;;;;;;;;23.30;63.00;;;;;;5088668;27;82210;-46
2022/07/31 14:12:59;;;;;;;;;;;23.40;62.80;;;;;;5088696;27;83039;-45
2022/07/31 14:15:24;;;;;;;;;;;23.40;62.90;;;;;;5088603;27;83008;-45